createdAt,value
2018-08-17T00:00:30.614Z,101145.89
2018-08-17T00:03:01.552Z,101141.68
2018-08-17T00:05:31.210Z,101148.98
2018-08-17T00:08:00.987Z,101149.52
2018-08-17T00:10:30.719Z,101139.08
2018-08-17T00:13:00.406Z,101147.33
2018-08-17T00:15:30.521Z,101150.52
2018-08-17T00:18:00.792Z,101150.92
2018-08-17T00:20:30.435Z,101153.02
2018-08-17T00:23:00.065Z,101151.19
2018-08-17T00:25:30.028Z,101148.40
2018-08-17T00:27:59.538Z,101146.48
2018-08-17T00:30:29.097Z,101147.70
2018-08-17T00:32:58.470Z,101142.49
2018-08-17T00:35:28.403Z,101146.23
2018-08-17T00:37:57.967Z,101146.95
2018-08-17T00:40:29.194Z,101155.45
2018-08-17T00:42:58.746Z,101154.59
2018-08-17T00:45:28.756Z,101163.44
2018-08-17T00:47:58.243Z,101162.95
2018-08-17T00:50:27.721Z,101162.45
2018-08-17T00:52:57.705Z,101166.62
2018-08-17T00:55:27.396Z,101168.27
2018-08-17T00:57:57.421Z,101167.64
2018-08-17T01:00:26.916Z,101169.83
2018-08-17T01:02:56.548Z,101170.90
2018-08-17T01:05:25.825Z,101176.66
2018-08-17T01:07:55.090Z,101178.11
2018-08-17T01:10:24.446Z,101177.92
2018-08-17T01:12:53.783Z,101174.17
2018-08-17T01:15:23.005Z,101173.17
2018-08-17T01:17:53.003Z,101175.69
2018-08-17T01:20:23.354Z,101172.83
2018-08-17T01:22:52.672Z,101174.52
2018-08-17T01:25:22.540Z,101173.61
2018-08-17T01:27:51.821Z,101174.64
2018-08-17T01:30:21.765Z,101180.61
2018-08-17T01:32:52.415Z,101172.65
2018-08-17T01:35:21.917Z,101165.56
2018-08-17T01:37:51.286Z,101177.85
2018-08-17T01:40:20.943Z,101172.70
2018-08-17T01:42:50.388Z,101168.63
2018-08-17T01:45:19.663Z,101175.41
2018-08-17T01:47:49.194Z,101171.94
2018-08-17T01:50:19.067Z,101178.70
2018-08-17T01:52:48.309Z,101178.29
2018-08-17T01:55:17.622Z,101173.84
2018-08-17T01:57:46.859Z,101177.56
2018-08-17T02:00:16.165Z,101176.29
2018-08-17T02:02:45.435Z,101183.91
2018-08-17T02:05:14.901Z,101181.16
2018-08-17T02:07:44.327Z,101177.69
2018-08-17T02:10:13.694Z,101175.98
2018-08-17T02:12:43.239Z,101180.86
2018-08-17T02:15:12.626Z,101171.63
2018-08-17T02:17:42.188Z,101174.34
2018-08-17T02:20:11.596Z,101177.55
2018-08-17T02:22:41.161Z,101172.52
2018-08-17T02:25:10.984Z,101173.83
2018-08-17T02:27:40.347Z,101172.78
2018-08-17T02:30:10.109Z,101174.12
2018-08-17T02:32:39.405Z,101168.22
2018-08-17T02:35:08.781Z,101165.59
2018-08-17T02:37:38.191Z,101173.73
2018-08-17T02:40:07.610Z,101157.96
2018-08-17T02:42:36.925Z,101157.53
2018-08-17T02:45:06.892Z,101154.08
2018-08-17T02:47:36.252Z,101155.44
2018-08-17T02:50:05.876Z,101154.78
2018-08-17T02:52:35.453Z,101156.13
2018-08-17T02:55:05.071Z,101149.02
2018-08-17T02:57:34.389Z,101151.78
2018-08-17T03:00:04.138Z,101150.30
2018-08-17T03:02:33.614Z,101158.41
2018-08-17T03:05:03.123Z,101157.13
2018-08-17T03:07:32.595Z,101155.00
2018-08-17T03:10:02.358Z,101156.95
2018-08-17T03:12:31.944Z,101160.57
2018-08-17T03:15:01.446Z,101161.31
2018-08-17T03:17:31.013Z,101165.93
2018-08-17T03:20:00.556Z,101173.73
2018-08-17T03:22:29.985Z,101163.59
2018-08-17T03:25:00.257Z,101162.17
2018-08-17T03:27:29.972Z,101162.33
2018-08-17T03:29:59.732Z,101164.88
2018-08-17T03:32:29.425Z,101161.97
2018-08-17T03:34:58.878Z,101166.93
2018-08-17T03:37:28.182Z,101169.08
2018-08-17T03:39:57.726Z,101166.23
2018-08-17T03:42:27.051Z,101163.88
2018-08-17T03:44:57.287Z,101173.98
2018-08-17T03:47:27.035Z,101170.78
2018-08-17T03:49:56.467Z,101179.53
2018-08-17T03:52:25.874Z,101181.34
2018-08-17T03:54:55.413Z,101183.45
2018-08-17T03:57:24.745Z,101186.30
2018-08-17T03:59:54.357Z,101185.95
2018-08-17T04:02:23.708Z,101189.36
2018-08-17T04:04:53.292Z,101185.30
2018-08-17T04:07:22.723Z,101191.80
2018-08-17T04:09:51.989Z,101198.44
2018-08-17T04:12:21.237Z,101199.78
2018-08-17T04:14:50.564Z,101197.64
2018-08-17T04:17:19.921Z,101203.39
2018-08-17T04:19:49.202Z,101207.50
2018-08-17T04:22:18.513Z,101211.91
2018-08-17T04:24:47.953Z,101207.09
2018-08-17T04:27:17.249Z,101207.64
2018-08-17T04:29:46.801Z,101206.03
2018-08-17T04:32:16.352Z,101205.74
2018-08-17T04:34:45.626Z,101199.84
2018-08-17T04:37:15.065Z,101215.91
2018-08-17T04:39:44.428Z,101216.66
2018-08-17T04:42:13.727Z,101221.00
2018-08-17T04:44:43.020Z,101226.73
2018-08-17T04:47:12.606Z,101226.67
2018-08-17T04:49:41.921Z,101228.58
2018-08-17T04:52:11.410Z,101229.08
2018-08-17T04:54:40.692Z,101232.66
2018-08-17T04:57:10.275Z,101243.69
2018-08-17T04:59:39.719Z,101247.17
2018-08-17T05:02:09.094Z,101255.63
2018-08-17T05:04:38.349Z,101262.47
2018-08-17T05:07:08.836Z,101255.41
2018-08-17T05:09:38.578Z,101263.72
2018-08-17T05:12:08.359Z,101251.70
2018-08-17T05:14:38.199Z,101253.41
2018-08-17T05:17:08.012Z,101251.39
2018-08-17T05:19:37.490Z,101255.45
2018-08-17T05:22:07.121Z,101250.34
2018-08-17T05:24:36.837Z,101254.83
2018-08-17T05:27:06.636Z,101253.28
2018-08-17T05:29:36.128Z,101250.34
2018-08-17T05:32:05.461Z,101250.31
2018-08-17T05:34:34.821Z,101249.50
2018-08-17T05:37:04.302Z,101246.60
2018-08-17T05:39:33.777Z,101246.45
2018-08-17T05:42:03.383Z,101238.98
2018-08-17T05:44:32.987Z,101238.56
2018-08-17T05:47:02.533Z,101247.77
2018-08-17T05:49:32.094Z,101249.47
2018-08-17T05:52:01.569Z,101248.00
2018-08-17T05:54:30.954Z,101249.31
2018-08-17T05:57:00.305Z,101248.73
2018-08-17T05:59:29.706Z,101242.45
2018-08-17T06:01:59.315Z,101245.96
2018-08-17T06:04:28.749Z,101244.46
2018-08-17T06:06:58.272Z,101244.65
2018-08-17T06:09:28.189Z,101242.60
2018-08-17T06:11:57.567Z,101236.93
2018-08-17T06:14:27.404Z,101235.97
2018-08-17T06:16:56.762Z,101233.33
2018-08-17T06:19:26.006Z,101225.91
2018-08-17T06:21:56.812Z,101229.05
2018-08-17T06:24:26.221Z,101225.70
2018-08-17T06:26:55.622Z,101228.78
2018-08-17T06:29:24.966Z,101236.30
2018-08-17T06:31:54.967Z,101237.49
2018-08-17T06:34:24.222Z,101242.09
2018-08-17T06:36:53.710Z,101242.11
2018-08-17T06:39:23.800Z,101245.62
2018-08-17T06:41:53.197Z,101244.95
2018-08-17T06:44:22.902Z,101242.69
2018-08-17T06:46:52.371Z,101239.55
2018-08-17T06:49:21.698Z,101238.42
2018-08-17T06:51:51.034Z,101256.45
2018-08-17T06:54:20.435Z,101261.33
2018-08-17T06:56:49.736Z,101257.34
2018-08-17T06:59:19.032Z,101256.27
2018-08-17T07:01:48.848Z,101256.84
2018-08-17T07:04:18.132Z,101261.13
2018-08-17T07:06:47.396Z,101264.01
2018-08-17T07:09:16.777Z,101266.92
2018-08-17T07:11:46.071Z,101259.30
2018-08-17T07:14:15.344Z,101260.67
2018-08-17T07:16:44.818Z,101260.19
2018-08-17T07:19:14.156Z,101257.27
2018-08-17T07:21:43.516Z,101257.63
2018-08-17T07:24:12.748Z,101254.73
2018-08-17T07:26:42.122Z,101257.12
2018-08-17T07:29:11.900Z,101264.75
2018-08-17T07:31:41.627Z,101257.58
2018-08-17T07:34:11.032Z,101257.58
2018-08-17T07:36:40.442Z,101265.72
2018-08-17T07:39:09.752Z,101269.14
2018-08-17T07:41:39.035Z,101271.33
2018-08-17T07:44:08.273Z,101274.56
2018-08-17T07:46:37.849Z,101290.39
2018-08-17T07:49:08.410Z,101285.83
2018-08-17T07:51:37.718Z,101290.56
2018-08-17T07:54:08.031Z,101295.52
2018-08-17T07:56:37.423Z,101296.70
2018-08-17T07:59:07.145Z,101292.64
2018-08-17T08:01:37.033Z,101299.11
2018-08-17T08:04:06.800Z,101297.56
2018-08-17T08:06:36.506Z,101290.55
2018-08-17T08:09:09.121Z,101290.58
2018-08-17T08:11:39.037Z,101286.65
2018-08-17T08:14:09.125Z,101286.62
2018-08-17T08:16:38.754Z,101295.13
2018-08-17T08:19:12.323Z,101290.02
2018-08-17T08:21:49.439Z,101291.55
2018-08-17T08:24:19.716Z,101297.61
2018-08-17T08:26:49.269Z,101298.64
2018-08-17T08:29:18.621Z,101300.49
2018-08-17T08:31:47.926Z,101300.00
2018-08-17T08:34:17.213Z,101309.06
2018-08-17T08:36:46.593Z,101318.63
2018-08-17T08:39:16.757Z,101326.98
2018-08-17T08:41:45.989Z,101325.09
2018-08-17T08:44:15.473Z,101329.17
2018-08-17T08:46:44.795Z,101339.59
2018-08-17T08:49:14.101Z,101340.25
2018-08-17T08:51:43.574Z,101345.38
2018-08-17T08:54:12.977Z,101351.17
2018-08-17T08:56:42.482Z,101345.37
2018-08-17T08:59:11.956Z,101336.52
2018-08-17T09:01:41.311Z,101336.34
2018-08-17T09:04:10.554Z,101340.45
2018-08-17T09:06:40.078Z,101326.49
2018-08-17T09:09:10.047Z,101337.22
2018-08-17T09:11:40.362Z,101342.47
2018-08-17T09:14:09.663Z,101352.33
2018-08-17T09:16:39.003Z,101355.22
2018-08-17T09:19:08.250Z,101361.66
2018-08-17T09:21:37.586Z,101363.11
2018-08-17T09:24:07.469Z,101366.95
2018-08-17T09:26:37.881Z,101362.16
2018-08-17T09:29:08.123Z,101365.20
2018-08-17T09:31:37.760Z,101359.04
2018-08-17T09:34:07.201Z,101362.05
2018-08-17T09:36:36.834Z,101360.22
2018-08-17T09:39:07.921Z,101355.34
2018-08-17T09:41:37.547Z,101356.14
2018-08-17T09:44:07.458Z,101357.14
2018-08-17T09:46:37.760Z,101357.52
2018-08-17T09:49:07.459Z,101356.42
2018-08-17T09:51:37.586Z,101363.84
2018-08-17T09:54:08.235Z,101356.47
2018-08-17T09:56:38.155Z,101366.81
2018-08-17T09:59:07.876Z,101364.41
2018-08-17T10:01:42.398Z,101379.36
2018-08-17T10:04:17.251Z,101394.17
2018-08-17T10:06:52.063Z,101389.82
2018-08-17T10:09:27.796Z,101387.92
2018-08-17T10:11:57.418Z,101399.74
2018-08-17T10:14:26.842Z,101404.66
2018-08-17T10:16:57.910Z,101407.88
2018-08-17T10:19:27.498Z,101416.04
2018-08-17T10:21:57.267Z,101422.31
2018-08-17T10:24:27.341Z,101416.80
2018-08-17T10:26:58.251Z,101417.74
2018-08-17T10:29:27.767Z,101415.38
2018-08-17T10:31:57.715Z,101426.84
2018-08-17T10:34:27.116Z,101423.75
2018-08-17T10:36:56.690Z,101418.72
2018-08-17T10:39:25.961Z,101421.93
2018-08-17T10:41:55.496Z,101421.77
2018-08-17T10:44:25.080Z,101416.00
2018-08-17T10:46:54.561Z,101407.88
2018-08-17T10:49:23.861Z,101402.16
2018-08-17T10:51:56.157Z,101407.58
2018-08-17T10:54:26.967Z,101410.16
2018-08-17T10:56:56.459Z,101404.91
2018-08-17T10:59:26.713Z,101401.03
2018-08-17T11:01:56.162Z,101400.84
2018-08-17T11:04:25.513Z,101403.93
2018-08-17T11:06:55.874Z,101402.80
2018-08-17T11:09:25.957Z,101408.26
2018-08-17T11:11:55.198Z,101403.63
2018-08-17T11:14:24.621Z,101409.50
2018-08-17T11:16:53.899Z,101414.04
2018-08-17T11:19:23.277Z,101411.22
2018-08-17T11:21:52.543Z,101410.61
2018-08-17T11:24:21.829Z,101413.03
2018-08-17T11:26:51.173Z,101410.74
2018-08-17T11:29:20.488Z,101411.48
2018-08-17T11:31:52.320Z,101407.19
2018-08-17T11:34:21.870Z,101400.73
2018-08-17T11:36:52.566Z,101408.79
2018-08-17T11:39:22.097Z,101408.06
2018-08-17T11:41:51.383Z,101397.05
2018-08-17T11:44:20.773Z,101389.50
2018-08-17T11:46:50.320Z,101396.84
2018-08-17T11:49:20.207Z,101401.55
2018-08-17T11:51:49.422Z,101408.57
2018-08-17T11:54:18.850Z,101406.65
2018-08-17T11:56:48.246Z,101404.43
2018-08-17T11:59:17.628Z,101390.02
2018-08-17T12:01:47.123Z,101402.41
2018-08-17T12:04:16.493Z,101389.70
2018-08-17T12:06:45.794Z,101393.37
2018-08-17T12:09:15.128Z,101400.95
2018-08-17T12:11:44.417Z,101394.13
2018-08-17T12:14:13.843Z,101395.41
2018-08-17T12:16:43.741Z,101399.38
2018-08-17T12:19:13.308Z,101402.91
2018-08-17T12:21:42.513Z,101409.91
2018-08-17T12:24:12.009Z,101403.86
2018-08-17T12:26:46.486Z,101389.77
2018-08-17T12:29:16.166Z,101382.77
2018-08-17T12:31:45.417Z,101388.55
2018-08-17T12:34:15.369Z,101384.55
2018-08-17T12:36:45.014Z,101388.16
2018-08-17T12:39:14.333Z,101387.43
2018-08-17T12:41:43.959Z,101390.00
2018-08-17T12:44:13.315Z,101387.75
2018-08-17T12:46:42.608Z,101397.85
2018-08-17T12:49:11.950Z,101397.48
2018-08-17T12:51:41.322Z,101394.35
2018-08-17T12:54:16.666Z,101389.92
2018-08-17T12:56:46.008Z,101392.03
2018-08-17T12:59:15.474Z,101402.46
2018-08-17T13:01:44.768Z,101392.19
2018-08-17T13:04:14.132Z,101393.28
2018-08-17T13:06:43.661Z,101398.42
2018-08-17T13:09:13.334Z,101397.28
2018-08-17T13:12:01.420Z,101400.83
2018-08-17T13:14:31.275Z,101407.95
2018-08-17T13:17:01.651Z,101411.23
2018-08-17T13:19:31.896Z,101415.23
2018-08-17T13:22:01.701Z,101418.71
2018-08-17T13:24:31.253Z,101418.03
2018-08-17T13:27:00.860Z,101417.47
2018-08-17T13:29:30.447Z,101416.45
2018-08-17T13:32:00.286Z,101416.45
2018-08-17T13:34:30.074Z,101421.89
2018-08-17T13:36:59.846Z,101420.58
2018-08-17T13:39:29.494Z,101411.79
2018-08-17T13:41:59.201Z,101413.48
2018-08-17T13:44:28.784Z,101418.24
2018-08-17T13:46:58.433Z,101412.14
2018-08-17T13:49:27.835Z,101414.90
2018-08-17T13:51:57.310Z,101420.34
2018-08-17T13:54:27.050Z,101416.59
2018-08-17T13:56:56.578Z,101414.85
2018-08-17T13:59:26.992Z,101419.70
2018-08-17T14:01:56.408Z,101412.42
2018-08-17T14:04:25.818Z,101410.25
2018-08-17T14:06:55.774Z,101404.66
2018-08-17T14:09:27.316Z,101415.98
2018-08-17T14:11:56.643Z,101405.95
2018-08-17T14:14:25.969Z,101395.96
2018-08-17T14:16:55.506Z,101408.40
2018-08-17T14:19:25.214Z,101401.61
2018-08-17T14:21:54.431Z,101413.59
2018-08-17T14:24:23.756Z,101411.43
2018-08-17T14:26:53.986Z,101415.78
2018-08-17T14:29:23.294Z,101415.82
2018-08-17T14:31:52.846Z,101425.37
2018-08-17T14:34:22.129Z,101424.86
2018-08-17T14:36:51.425Z,101420.23
2018-08-17T14:39:21.029Z,101418.56
2018-08-17T14:41:58.190Z,101423.45
2018-08-17T14:44:28.451Z,101427.05
2018-08-17T14:46:58.030Z,101422.75
2018-08-17T14:49:28.060Z,101422.92
2018-08-17T14:51:57.794Z,101420.72
2018-08-17T14:54:27.127Z,101422.89
2018-08-17T14:56:56.484Z,101422.59
2018-08-17T14:59:25.841Z,101421.78
2018-08-17T15:01:55.232Z,101417.09
2018-08-17T15:04:24.478Z,101413.45
2018-08-17T15:06:54.252Z,101420.75
2018-08-17T15:09:23.775Z,101420.98
2018-08-17T15:11:53.255Z,101426.02
2018-08-17T15:14:22.780Z,101430.78
2018-08-17T15:16:52.231Z,101433.28
2018-08-17T15:19:24.313Z,101435.68
2018-08-17T15:21:53.607Z,101429.41
2018-08-17T15:24:22.879Z,101434.36
2018-08-17T15:26:53.655Z,101433.25
2018-08-17T15:29:29.092Z,101440.85
2018-08-17T15:32:01.436Z,101443.00
2018-08-17T15:34:31.275Z,101437.58
2018-08-17T15:37:01.437Z,101443.51
2018-08-17T15:39:31.206Z,101444.41
2018-08-17T15:42:01.712Z,101441.83
2018-08-17T15:44:31.521Z,101447.99
2018-08-17T15:47:01.407Z,101449.20
2018-08-17T15:49:36.327Z,101438.21
2018-08-17T15:52:06.849Z,101441.30
2018-08-17T15:54:36.248Z,101449.14
2018-08-17T15:57:06.092Z,101443.00
2018-08-17T15:59:35.517Z,101449.14
2018-08-17T16:02:04.915Z,101448.80
2018-08-17T16:04:34.422Z,101445.03
2018-08-17T16:07:05.478Z,101446.77
2018-08-17T16:09:35.224Z,101444.36
2018-08-17T16:12:04.872Z,101447.65
2018-08-17T16:14:34.274Z,101438.62
2018-08-17T16:17:04.250Z,101446.65
2018-08-17T16:19:35.417Z,101440.00
2018-08-17T16:22:05.721Z,101442.40
2018-08-17T16:24:35.195Z,101441.38
2018-08-17T16:27:04.953Z,101440.34
2018-08-17T16:29:34.600Z,101435.55
2018-08-17T16:32:04.738Z,101438.95
2018-08-17T16:34:34.377Z,101438.94
2018-08-17T16:37:03.930Z,101440.66
2018-08-17T16:39:39.027Z,101445.08
2018-08-17T16:42:08.555Z,101442.66
2018-08-17T16:44:38.211Z,101448.80
2018-08-17T16:47:12.618Z,101444.02
2018-08-17T16:49:42.669Z,101444.19
2018-08-17T16:52:12.565Z,101450.14
2018-08-17T16:54:42.077Z,101446.71
2018-08-17T16:57:12.197Z,101452.16
2018-08-17T16:59:48.835Z,101450.45
2018-08-17T17:02:19.019Z,101456.04
2018-08-17T17:04:49.419Z,101461.98
2018-08-17T17:07:19.423Z,101460.59
2018-08-17T17:09:50.690Z,101463.59
2018-08-17T17:12:26.028Z,101464.94
2018-08-17T17:15:11.446Z,101470.68
2018-08-17T17:17:41.088Z,101468.77
2018-08-17T17:20:11.782Z,101462.47
2018-08-17T17:22:42.533Z,101470.63
2018-08-17T17:25:23.285Z,101468.53
2018-08-17T17:27:52.613Z,101472.23
2018-08-17T17:30:21.987Z,101471.02
2018-08-17T17:32:51.705Z,101480.66
2018-08-17T17:35:21.113Z,101481.00
2018-08-17T17:37:50.992Z,101482.34
2018-08-17T17:40:20.693Z,101483.64
2018-08-17T17:42:55.658Z,101483.98
2018-08-17T17:45:27.711Z,101485.72
2018-08-17T17:48:00.824Z,101485.09
2018-08-17T17:50:43.139Z,101484.30
2018-08-17T17:53:13.667Z,101489.73
2018-08-17T17:55:49.008Z,101490.34
2018-08-17T17:58:19.549Z,101494.65
2018-08-17T18:00:55.791Z,101495.06
2018-08-17T18:03:33.188Z,101505.18
2018-08-17T18:06:07.389Z,101499.32
2018-08-17T18:08:37.348Z,101504.55
2018-08-17T18:11:07.460Z,101503.09
2018-08-17T18:13:37.682Z,101506.77
2018-08-17T18:16:07.467Z,101505.72
2018-08-17T18:18:37.007Z,101509.77
2018-08-17T18:21:06.585Z,101509.67
2018-08-17T18:23:36.038Z,101510.64
2018-08-17T18:26:14.612Z,101515.28
2018-08-17T18:28:43.853Z,101521.35
2018-08-17T18:31:13.210Z,101511.63
2018-08-17T18:33:42.578Z,101511.02
2018-08-17T18:36:12.291Z,101513.12
2018-08-17T18:38:41.989Z,101517.03
2018-08-17T18:41:11.678Z,101512.49
2018-08-17T18:43:41.459Z,101512.76
2018-08-17T18:46:10.764Z,101519.10
2018-08-17T18:48:41.775Z,101519.71
2018-08-17T18:51:11.697Z,101515.52
2018-08-17T18:53:41.083Z,101521.98
2018-08-17T18:56:10.525Z,101524.05
2018-08-17T18:58:40.181Z,101532.42
2018-08-17T19:01:09.590Z,101535.70
2018-08-17T19:03:38.915Z,101533.94
2018-08-17T19:06:08.689Z,101537.27
2018-08-17T19:08:38.604Z,101536.50
2018-08-17T19:11:08.024Z,101545.27
2018-08-17T19:13:37.485Z,101543.47
2018-08-17T19:16:06.999Z,101546.18
2018-08-17T19:18:36.253Z,101547.47
2018-08-17T19:21:09.621Z,101546.81
2018-08-17T19:23:39.402Z,101546.52
2018-08-17T19:26:10.052Z,101549.66
2018-08-17T19:28:39.653Z,101549.23
2018-08-17T19:31:09.054Z,101555.84
2018-08-17T19:33:38.459Z,101555.85
2018-08-17T19:36:07.920Z,101554.08
2018-08-17T19:38:42.564Z,101561.02
2018-08-17T19:41:11.850Z,101552.98
2018-08-17T19:43:41.060Z,101553.95
2018-08-17T19:46:10.646Z,101564.97
2018-08-17T19:48:40.934Z,101567.93
2018-08-17T19:51:15.642Z,101560.03
2018-08-17T19:53:45.221Z,101571.09
2018-08-17T19:56:15.472Z,101578.12
2018-08-17T19:58:44.820Z,101574.66
2018-08-17T20:01:14.397Z,101575.19
2018-08-17T20:03:43.994Z,101582.01
2018-08-17T20:06:13.361Z,101582.17
2018-08-17T20:08:42.706Z,101582.80
2018-08-17T20:11:11.980Z,101578.48
2018-08-17T20:13:41.357Z,101587.08
2018-08-17T20:16:32.079Z,101590.14
2018-08-17T20:19:04.076Z,101589.64
2018-08-17T20:21:33.793Z,101593.11
2018-08-17T20:24:03.361Z,101591.43
2018-08-17T20:26:33.717Z,101598.32
2018-08-17T20:29:05.136Z,101598.73
2018-08-17T20:31:42.193Z,101603.66
2018-08-17T20:34:12.426Z,101605.16
2018-08-17T20:36:42.221Z,101600.00
2018-08-17T20:39:13.382Z,101602.61
2018-08-17T20:41:42.669Z,101605.58
2018-08-17T20:44:11.877Z,101606.09
2018-08-17T20:46:41.532Z,101604.38
2018-08-17T20:49:10.801Z,101610.05
2018-08-17T20:51:45.552Z,101608.58
2018-08-17T20:54:14.843Z,101609.20
2018-08-17T20:56:44.204Z,101612.04
2018-08-17T20:59:13.508Z,101610.83
2018-08-17T21:01:42.736Z,101616.27
2018-08-17T21:04:12.117Z,101618.73
2018-08-17T21:06:41.349Z,101624.73
2018-08-17T21:09:10.661Z,101621.17
2018-08-17T21:11:40.173Z,101627.83
2018-08-17T21:14:09.678Z,101632.00
2018-08-17T21:16:39.544Z,101632.14
2018-08-17T21:19:10.315Z,101631.28
2018-08-17T21:21:40.013Z,101636.42
2018-08-17T21:24:10.132Z,101634.34
2018-08-17T21:26:39.445Z,101628.59
2018-08-17T21:29:09.749Z,101628.25
2018-08-17T21:31:38.998Z,101634.63
2018-08-17T21:34:08.471Z,101641.38
2018-08-17T21:36:37.934Z,101641.02
2018-08-17T21:39:14.864Z,101637.10
2018-08-17T21:41:45.356Z,101649.23
2018-08-17T21:44:22.420Z,101642.63
2018-08-17T21:46:57.099Z,101644.09
2018-08-17T21:49:27.249Z,101649.61
2018-08-17T21:51:59.102Z,101655.38
2018-08-17T21:54:32.302Z,101655.27
2018-08-17T21:57:02.841Z,101657.06
2018-08-17T21:59:38.165Z,101654.63
2018-08-17T22:02:09.924Z,101651.56
2018-08-17T22:04:39.310Z,101663.42
2018-08-17T22:07:19.777Z,101664.30
2018-08-17T22:09:49.510Z,101664.06
2018-08-17T22:12:18.841Z,101665.52
2018-08-17T22:14:49.233Z,101667.48
2018-08-17T22:17:31.243Z,101665.91
2018-08-17T22:20:01.132Z,101664.30
2018-08-17T22:22:30.766Z,101661.60
2018-08-17T22:25:01.273Z,101659.65
2018-08-17T22:27:30.875Z,101664.03
2018-08-17T22:30:00.600Z,101664.14
2018-08-17T22:32:30.415Z,101665.73
2018-08-17T22:34:59.763Z,101668.92
2018-08-17T22:37:29.144Z,101670.15
2018-08-17T22:39:59.108Z,101673.20
2018-08-17T22:42:34.754Z,101668.44
2018-08-17T22:45:04.337Z,101666.11
2018-08-17T22:47:33.919Z,101669.02
2018-08-17T22:50:03.403Z,101667.09
2018-08-17T22:52:33.643Z,101661.30
2018-08-17T22:55:04.445Z,101664.61
2018-08-17T22:57:34.189Z,101662.75
2018-08-17T23:00:22.805Z,101663.24
2018-08-17T23:02:53.434Z,101662.51
2018-08-17T23:05:24.140Z,101661.03
2018-08-17T23:07:53.397Z,101662.26
2018-08-17T23:10:24.056Z,101664.47
2018-08-17T23:12:53.943Z,101663.86
2018-08-17T23:15:23.265Z,101659.20
2018-08-17T23:17:57.911Z,101662.88
2018-08-17T23:20:32.566Z,101658.93
2018-08-17T23:23:03.235Z,101664.95
2018-08-17T23:25:32.894Z,101668.14
2018-08-17T23:28:02.401Z,101668.97
2018-08-17T23:30:32.296Z,101666.77
2018-08-17T23:33:01.801Z,101660.98
2018-08-17T23:35:31.252Z,101665.75
2018-08-17T23:38:00.660Z,101670.16
2018-08-17T23:40:31.073Z,101665.64
2018-08-17T23:43:00.493Z,101673.59
2018-08-17T23:45:29.968Z,101664.78
2018-08-17T23:47:59.823Z,101669.05
2018-08-17T23:50:29.367Z,101676.52
2018-08-17T23:52:59.617Z,101681.16
2018-08-17T23:55:29.161Z,101677.45
2018-08-17T23:57:58.510Z,101671.83
